createdAt,value
2019-02-25T00:00:18.720Z,4.06
2019-02-25T00:01:18.705Z,4.02
2019-02-25T00:02:18.713Z,4.05
2019-02-25T00:03:18.722Z,4.18
2019-02-25T00:04:18.674Z,4.18
2019-02-25T00:05:18.662Z,4.12
2019-02-25T00:06:18.654Z,4.23
2019-02-25T00:07:18.644Z,4.27
2019-02-25T00:08:18.654Z,4.22
2019-02-25T00:09:18.691Z,4.15
2019-02-25T00:10:18.611Z,4.12
2019-02-25T00:11:18.603Z,4.23
2019-02-25T00:12:18.589Z,4.16
2019-02-25T00:13:18.574Z,4.22
2019-02-25T00:14:31.150Z,4.26
2019-02-25T00:15:18.554Z,4.04
2019-02-25T00:16:18.544Z,4.05
2019-02-25T00:17:19.100Z,4.00
2019-02-25T00:18:18.524Z,4.12
2019-02-25T00:19:18.522Z,4.06
2019-02-25T00:20:18.583Z,4.09
2019-02-25T00:21:18.493Z,4.22
2019-02-25T00:22:18.490Z,4.20
2019-02-25T00:23:18.465Z,4.14
2019-02-25T00:24:18.459Z,4.20
2019-02-25T00:25:18.443Z,4.16
2019-02-25T00:26:18.453Z,4.02
2019-02-25T00:27:18.435Z,4.11
2019-02-25T00:28:18.416Z,4.22
2019-02-25T00:29:18.403Z,4.24
2019-02-25T00:30:18.389Z,4.22
2019-02-25T00:31:18.377Z,4.23
2019-02-25T00:32:18.391Z,4.16
2019-02-25T00:33:18.371Z,4.12
2019-02-25T00:34:18.351Z,4.12
2019-02-25T00:35:18.343Z,4.22
2019-02-25T00:36:18.328Z,4.22
2019-02-25T00:37:18.318Z,4.22
2019-02-25T00:38:18.349Z,4.26
2019-02-25T00:39:18.319Z,4.15
2019-02-25T00:40:18.286Z,4.14
2019-02-25T00:41:18.278Z,4.15
2019-02-25T00:42:18.272Z,4.22
2019-02-25T00:43:18.248Z,4.22
2019-02-25T00:44:18.276Z,4.24
2019-02-25T00:45:29.617Z,4.16
2019-02-25T00:46:18.221Z,4.24
2019-02-25T00:47:18.210Z,4.18
2019-02-25T00:48:18.198Z,4.27
2019-02-25T00:49:18.187Z,4.26
2019-02-25T00:50:18.363Z,4.24
2019-02-25T00:51:18.164Z,4.24
2019-02-25T00:52:18.154Z,4.29
2019-02-25T00:53:18.163Z,4.33
2019-02-25T00:54:18.135Z,4.40
2019-02-25T00:55:18.121Z,4.42
2019-02-25T00:56:18.146Z,4.37
2019-02-25T00:57:18.107Z,4.40
2019-02-25T00:58:18.101Z,4.51
2019-02-25T00:59:18.083Z,4.45
2019-02-25T01:00:18.104Z,4.44
2019-02-25T01:01:18.054Z,4.42
2019-02-25T01:02:18.082Z,4.41
2019-02-25T01:03:18.034Z,4.34
2019-02-25T01:04:18.049Z,4.34
2019-02-25T01:05:18.010Z,4.36
2019-02-25T01:06:17.999Z,4.42
2019-02-25T01:07:18.029Z,4.42
2019-02-25T01:08:18.024Z,4.40
2019-02-25T01:09:17.966Z,4.32
2019-02-25T01:10:17.986Z,4.34
2019-02-25T01:11:17.945Z,4.36
2019-02-25T01:12:17.936Z,4.33
2019-02-25T01:13:17.925Z,4.33
2019-02-25T01:14:17.955Z,4.24
2019-02-25T01:15:17.917Z,4.34
2019-02-25T01:16:29.650Z,4.29
2019-02-25T01:17:17.880Z,4.29
2019-02-25T01:18:17.874Z,4.29
2019-02-25T01:19:17.864Z,4.34
2019-02-25T01:20:17.888Z,4.29
2019-02-25T01:21:17.865Z,4.26
2019-02-25T01:22:17.825Z,4.30
2019-02-25T01:23:18.647Z,4.22
2019-02-25T01:24:17.834Z,4.26
2019-02-25T01:25:17.801Z,4.24
2019-02-25T01:26:17.817Z,4.36
2019-02-25T01:27:17.773Z,4.32
2019-02-25T01:28:17.765Z,4.34
2019-02-25T01:29:17.765Z,4.34
2019-02-25T01:30:17.744Z,4.23
2019-02-25T01:31:17.731Z,4.32
2019-02-25T01:32:17.732Z,4.24
2019-02-25T01:33:17.719Z,4.24
2019-02-25T01:34:17.702Z,4.24
2019-02-25T01:35:17.696Z,4.41
2019-02-25T01:36:17.675Z,4.37
2019-02-25T01:37:17.682Z,4.42
2019-02-25T01:38:17.659Z,4.41
2019-02-25T01:39:17.641Z,4.41
2019-02-25T01:40:17.638Z,4.41
2019-02-25T01:41:17.644Z,4.47
2019-02-25T01:42:17.610Z,4.45
2019-02-25T01:43:17.637Z,4.42
2019-02-25T01:44:17.587Z,4.40
2019-02-25T01:45:17.578Z,4.51
2019-02-25T01:46:17.570Z,4.47
2019-02-25T01:47:28.731Z,4.47
2019-02-25T01:48:17.549Z,4.45
2019-02-25T01:49:17.572Z,4.45
2019-02-25T01:50:17.526Z,4.52
2019-02-25T01:51:17.516Z,4.52
2019-02-25T01:52:17.513Z,4.62
2019-02-25T01:53:17.494Z,4.58
2019-02-25T01:54:17.478Z,4.55
2019-02-25T01:55:17.518Z,4.36
2019-02-25T01:56:17.460Z,4.34
2019-02-25T01:57:17.450Z,4.32
2019-02-25T01:58:17.438Z,4.33
2019-02-25T01:59:17.425Z,4.33
2019-02-25T02:00:17.446Z,4.27
2019-02-25T02:01:17.411Z,4.37
2019-02-25T02:02:17.398Z,4.37
2019-02-25T02:03:17.386Z,4.48
2019-02-25T02:04:17.375Z,4.44
2019-02-25T02:05:17.363Z,4.42
2019-02-25T02:06:17.399Z,4.30
2019-02-25T02:07:17.340Z,4.44
2019-02-25T02:08:17.328Z,4.41
2019-02-25T02:09:17.315Z,4.40
2019-02-25T02:10:17.310Z,4.27
2019-02-25T02:11:17.300Z,4.30
2019-02-25T02:12:17.472Z,4.26
2019-02-25T02:13:17.271Z,4.32
2019-02-25T02:14:17.260Z,4.32
2019-02-25T02:15:17.316Z,4.34
2019-02-25T02:16:17.239Z,4.32
2019-02-25T02:17:17.229Z,4.23
2019-02-25T02:18:27.260Z,4.26
2019-02-25T02:19:17.212Z,4.37
2019-02-25T02:20:17.198Z,4.40
2019-02-25T02:21:17.188Z,4.37
2019-02-25T02:22:17.180Z,4.37
2019-02-25T02:23:17.177Z,4.26
2019-02-25T02:24:17.195Z,4.34
2019-02-25T02:25:17.141Z,4.29
2019-02-25T02:26:17.150Z,4.24
2019-02-25T02:27:17.124Z,4.20
2019-02-25T02:28:17.112Z,4.12
2019-02-25T02:29:17.219Z,4.06
2019-02-25T02:30:17.125Z,4.08
2019-02-25T02:31:17.092Z,4.18
2019-02-25T02:32:17.069Z,4.14
2019-02-25T02:33:17.054Z,4.18
2019-02-25T02:34:17.045Z,4.20
2019-02-25T02:35:17.039Z,4.23
2019-02-25T02:36:17.035Z,4.08
2019-02-25T02:37:17.021Z,4.23
2019-02-25T02:38:17.001Z,4.27
2019-02-25T02:39:16.992Z,4.32
2019-02-25T02:40:16.984Z,4.34
2019-02-25T02:41:17.003Z,4.33
2019-02-25T02:42:16.954Z,4.45
2019-02-25T02:43:16.960Z,4.40
2019-02-25T02:44:16.937Z,4.34
2019-02-25T02:45:16.926Z,4.33
2019-02-25T02:46:16.921Z,4.37
2019-02-25T02:47:16.936Z,4.33
2019-02-25T02:48:16.895Z,4.47
2019-02-25T02:49:27.594Z,4.44
2019-02-25T02:50:16.872Z,4.47
2019-02-25T02:51:16.864Z,4.45
2019-02-25T02:52:16.847Z,4.32
2019-02-25T02:53:16.874Z,4.42
2019-02-25T02:54:16.841Z,4.58
2019-02-25T02:55:16.819Z,4.44
2019-02-25T02:56:16.803Z,4.47
2019-02-25T02:57:16.802Z,4.44
2019-02-25T02:58:16.788Z,4.52
2019-02-25T02:59:16.789Z,4.52
2019-02-25T03:00:16.763Z,4.54
2019-02-25T03:01:16.754Z,4.32
2019-02-25T03:02:16.759Z,4.32
2019-02-25T03:03:16.731Z,4.33
2019-02-25T03:04:16.719Z,4.30
2019-02-25T03:05:16.752Z,4.22
2019-02-25T03:06:16.696Z,4.23
2019-02-25T03:07:16.685Z,4.20
2019-02-25T03:08:16.680Z,4.36
2019-02-25T03:09:16.679Z,4.47
2019-02-25T03:10:16.658Z,4.45
2019-02-25T03:11:16.679Z,4.51
2019-02-25T03:12:16.631Z,4.44
2019-02-25T03:13:16.623Z,4.40
2019-02-25T03:14:16.626Z,4.23
2019-02-25T03:15:16.597Z,4.22
2019-02-25T03:16:16.591Z,4.16
2019-02-25T03:17:16.746Z,4.26
2019-02-25T03:18:16.571Z,4.24
2019-02-25T03:19:16.562Z,4.40
2019-02-25T03:20:26.774Z,4.34
2019-02-25T03:21:16.530Z,4.27
2019-02-25T03:22:16.525Z,4.33
2019-02-25T03:23:16.556Z,4.29
2019-02-25T03:24:16.502Z,4.30
2019-02-25T03:25:16.500Z,4.45
2019-02-25T03:26:16.479Z,4.29
2019-02-25T03:27:16.463Z,4.33
2019-02-25T03:28:16.465Z,4.41
2019-02-25T03:29:16.481Z,4.41
2019-02-25T03:30:16.439Z,4.45
2019-02-25T03:31:16.424Z,4.40
2019-02-25T03:32:16.419Z,4.36
2019-02-25T03:33:16.426Z,4.30
2019-02-25T03:34:16.392Z,4.27
2019-02-25T03:35:16.454Z,4.33
2019-02-25T03:36:16.372Z,4.36
2019-02-25T03:37:16.359Z,4.40
2019-02-25T03:38:16.350Z,4.27
2019-02-25T03:39:16.351Z,4.26
2019-02-25T03:40:16.425Z,4.22
2019-02-25T03:41:16.330Z,4.26
2019-02-25T03:42:16.310Z,4.36
2019-02-25T03:43:16.301Z,4.30
2019-02-25T03:44:16.282Z,4.23
2019-02-25T03:45:16.282Z,4.18
2019-02-25T03:46:16.302Z,4.09
2019-02-25T03:47:16.253Z,4.11
2019-02-25T03:48:16.243Z,4.15
2019-02-25T03:49:16.225Z,4.16
2019-02-25T03:50:16.224Z,4.26
2019-02-25T03:51:28.351Z,4.26
2019-02-25T03:52:16.197Z,4.44
2019-02-25T03:53:16.189Z,4.37
2019-02-25T03:54:16.177Z,4.32
2019-02-25T03:55:16.188Z,4.24
2019-02-25T03:56:16.165Z,4.20
2019-02-25T03:57:16.334Z,4.26
2019-02-25T03:58:16.132Z,4.32
2019-02-25T03:59:16.129Z,4.32
2019-02-25T04:00:16.111Z,4.48
2019-02-25T04:01:16.096Z,4.51
2019-02-25T04:02:16.088Z,4.52
2019-02-25T04:03:16.082Z,4.44
2019-02-25T04:04:16.079Z,4.47
2019-02-25T04:05:16.057Z,4.34
2019-02-25T04:06:16.045Z,4.41
2019-02-25T04:07:16.034Z,4.34
2019-02-25T04:08:16.197Z,4.34
2019-02-25T04:09:16.010Z,4.40
2019-02-25T04:10:16.042Z,4.41
2019-02-25T04:11:15.986Z,4.50
2019-02-25T04:12:15.977Z,4.48
2019-02-25T04:13:15.970Z,4.48
2019-02-25T04:14:16.126Z,4.41
2019-02-25T04:15:15.951Z,4.51
2019-02-25T04:16:15.966Z,4.55
2019-02-25T04:17:15.922Z,4.58
2019-02-25T04:18:15.913Z,4.48
2019-02-25T04:19:15.900Z,4.60
2019-02-25T04:20:15.927Z,4.58
2019-02-25T04:21:15.879Z,4.45
2019-02-25T04:22:26.460Z,4.62
2019-02-25T04:23:15.859Z,4.62
2019-02-25T04:24:15.848Z,4.50
2019-02-25T04:25:15.871Z,4.59
2019-02-25T04:26:15.836Z,4.51
2019-02-25T04:27:15.815Z,4.47
2019-02-25T04:28:15.803Z,4.44
2019-02-25T04:29:15.811Z,4.44
2019-02-25T04:30:15.785Z,4.45
2019-02-25T04:31:15.782Z,4.54
2019-02-25T04:32:15.759Z,4.59
2019-02-25T04:33:15.750Z,4.62
2019-02-25T04:34:15.746Z,4.59
2019-02-25T04:35:15.727Z,4.62
2019-02-25T04:36:15.756Z,4.54
2019-02-25T04:37:15.703Z,4.55
2019-02-25T04:38:15.697Z,4.52
2019-02-25T04:39:15.689Z,4.52
2019-02-25T04:40:15.683Z,4.50
2019-02-25T04:41:15.928Z,4.54
2019-02-25T04:42:15.685Z,4.60
2019-02-25T04:43:15.647Z,4.58
2019-02-25T04:44:15.629Z,4.65
2019-02-25T04:45:15.622Z,4.62
2019-02-25T04:46:15.623Z,4.52
2019-02-25T04:47:15.601Z,4.55
2019-02-25T04:48:15.624Z,4.55
2019-02-25T04:49:15.575Z,4.52
2019-02-25T04:50:15.573Z,4.48
2019-02-25T04:51:15.579Z,4.55
2019-02-25T04:52:15.547Z,4.52
2019-02-25T04:53:25.900Z,4.44
2019-02-25T04:54:15.518Z,4.47
2019-02-25T04:55:15.513Z,4.47
2019-02-25T04:56:15.504Z,4.52
2019-02-25T04:57:15.488Z,4.67
2019-02-25T04:58:15.506Z,4.65
2019-02-25T04:59:15.502Z,4.54
2019-02-25T05:00:15.453Z,4.60
2019-02-25T05:01:15.449Z,4.48
2019-02-25T05:02:15.432Z,4.47
2019-02-25T05:03:15.420Z,4.44
2019-02-25T05:04:15.426Z,4.52
2019-02-25T05:05:15.425Z,4.52
2019-02-25T05:06:15.409Z,4.48
2019-02-25T05:07:15.379Z,4.54
2019-02-25T05:08:15.376Z,4.51
2019-02-25T05:09:15.355Z,4.44
2019-02-25T05:10:15.349Z,4.50
2019-02-25T05:11:15.369Z,4.55
2019-02-25T05:12:15.370Z,4.55
2019-02-25T05:13:15.319Z,4.50
2019-02-25T05:14:15.307Z,4.51
2019-02-25T05:15:15.290Z,4.47
2019-02-25T05:16:15.284Z,4.41
2019-02-25T05:17:15.276Z,4.44
2019-02-25T05:18:15.268Z,4.37
2019-02-25T05:19:15.249Z,4.41
2019-02-25T05:20:15.248Z,4.48
2019-02-25T05:21:15.228Z,4.51
2019-02-25T05:22:15.394Z,4.44
2019-02-25T05:23:15.200Z,4.41
2019-02-25T05:24:25.596Z,4.41
2019-02-25T05:25:15.181Z,4.51
2019-02-25T05:26:15.174Z,4.54
2019-02-25T05:27:15.161Z,4.40
2019-02-25T05:28:15.186Z,4.41
2019-02-25T05:29:15.151Z,4.48
2019-02-25T05:30:15.135Z,4.59
2019-02-25T05:31:15.116Z,4.44
2019-02-25T05:32:15.121Z,4.42
2019-02-25T05:33:15.092Z,4.40
2019-02-25T05:34:15.121Z,4.40
2019-02-25T05:35:15.078Z,4.42
2019-02-25T05:36:15.072Z,4.50
2019-02-25T05:37:15.061Z,4.48
2019-02-25T05:38:15.044Z,4.44
2019-02-25T05:39:15.032Z,4.50
2019-02-25T05:40:15.034Z,4.47
2019-02-25T05:41:15.013Z,4.44
2019-02-25T05:42:15.003Z,4.42
2019-02-25T05:43:14.998Z,4.37
2019-02-25T05:44:14.977Z,4.29
2019-02-25T05:45:15.014Z,4.44
2019-02-25T05:46:14.953Z,4.47
2019-02-25T05:47:15.888Z,4.52
2019-02-25T05:48:14.928Z,4.45
2019-02-25T05:49:14.934Z,4.54
2019-02-25T05:50:14.919Z,4.48
2019-02-25T05:51:14.937Z,4.45
2019-02-25T05:52:14.889Z,4.45
2019-02-25T05:53:14.880Z,4.40
2019-02-25T05:54:14.871Z,4.44
2019-02-25T05:55:25.718Z,4.36
2019-02-25T05:56:14.848Z,4.45
2019-02-25T05:57:14.846Z,4.58
2019-02-25T05:58:14.825Z,4.47
2019-02-25T05:59:14.810Z,4.42
2019-02-25T06:00:14.824Z,4.45
2019-02-25T06:01:14.792Z,4.48
2019-02-25T06:02:14.797Z,4.41
2019-02-25T06:03:14.785Z,4.44
2019-02-25T06:04:14.753Z,4.47
2019-02-25T06:05:14.787Z,4.50
2019-02-25T06:06:14.741Z,4.50
2019-02-25T06:07:14.727Z,4.50
2019-02-25T06:08:14.771Z,4.51
2019-02-25T06:09:14.702Z,4.48
2019-02-25T06:10:15.404Z,4.60
2019-02-25T06:11:14.682Z,4.44
2019-02-25T06:12:14.669Z,4.48
2019-02-25T06:13:14.661Z,4.45
2019-02-25T06:14:14.699Z,4.54
2019-02-25T06:15:14.639Z,4.55
2019-02-25T06:16:14.623Z,4.62
2019-02-25T06:17:14.620Z,4.50
2019-02-25T06:18:14.604Z,4.59
2019-02-25T06:19:14.591Z,4.60
2019-02-25T06:20:14.645Z,4.48
2019-02-25T06:21:14.570Z,4.62
2019-02-25T06:22:14.559Z,4.65
2019-02-25T06:23:14.551Z,4.58
2019-02-25T06:24:14.543Z,4.69
2019-02-25T06:25:14.548Z,4.69
2019-02-25T06:26:25.115Z,4.70
2019-02-25T06:27:14.509Z,4.69
2019-02-25T06:28:14.501Z,4.73
2019-02-25T06:29:14.483Z,4.65
2019-02-25T06:30:14.470Z,4.75
2019-02-25T06:31:14.484Z,4.82
2019-02-25T06:32:14.624Z,4.75
2019-02-25T06:33:14.442Z,4.77
2019-02-25T06:34:14.444Z,4.84
2019-02-25T06:35:14.421Z,4.75
2019-02-25T06:36:14.411Z,4.70
2019-02-25T06:37:14.397Z,4.73
2019-02-25T06:38:14.391Z,4.75
2019-02-25T06:39:14.385Z,4.73
2019-02-25T06:40:15.588Z,4.70
2019-02-25T06:41:14.357Z,4.78
2019-02-25T06:42:14.340Z,4.73
2019-02-25T06:43:14.372Z,4.77
2019-02-25T06:44:14.318Z,4.80
2019-02-25T06:45:14.319Z,4.80
2019-02-25T06:46:14.306Z,4.84
2019-02-25T06:47:14.290Z,4.70
2019-02-25T06:48:14.282Z,4.80
2019-02-25T06:49:14.308Z,4.72
2019-02-25T06:50:14.261Z,4.80
2019-02-25T06:51:14.251Z,4.78
2019-02-25T06:52:14.235Z,4.82
2019-02-25T06:53:14.228Z,4.82
2019-02-25T06:54:14.216Z,4.73
2019-02-25T06:55:14.244Z,4.78
2019-02-25T06:56:14.189Z,4.75
2019-02-25T06:57:26.114Z,4.73
2019-02-25T06:58:14.169Z,4.70
2019-02-25T06:59:14.162Z,4.89
2019-02-25T07:00:14.151Z,4.75
2019-02-25T07:01:14.182Z,4.75
2019-02-25T07:02:14.129Z,4.80
2019-02-25T07:03:14.121Z,4.72
2019-02-25T07:04:14.114Z,4.84
2019-02-25T07:05:14.095Z,4.84
2019-02-25T07:06:14.085Z,4.86
2019-02-25T07:07:14.107Z,4.96
2019-02-25T07:08:14.059Z,4.84
2019-02-25T07:09:14.069Z,4.89
2019-02-25T07:10:14.045Z,4.94
2019-02-25T07:11:14.036Z,4.94
2019-02-25T07:12:14.017Z,5.02
2019-02-25T07:13:14.049Z,4.96
2019-02-25T07:14:13.995Z,5.04
2019-02-25T07:15:13.990Z,4.92
2019-02-25T07:16:14.956Z,4.97
2019-02-25T07:17:13.964Z,4.92
2019-02-25T07:18:13.957Z,4.97
2019-02-25T07:19:13.959Z,4.92
2019-02-25T07:20:13.935Z,4.86
2019-02-25T07:21:13.929Z,4.96
2019-02-25T07:22:13.914Z,4.96
2019-02-25T07:23:13.898Z,4.97
2019-02-25T07:24:13.891Z,4.97
2019-02-25T07:25:13.914Z,4.99
2019-02-25T07:26:13.870Z,4.96
2019-02-25T07:27:13.872Z,4.94
2019-02-25T07:28:24.931Z,4.96
2019-02-25T07:29:13.841Z,4.96
2019-02-25T07:30:13.825Z,4.97
2019-02-25T07:31:13.853Z,4.99
2019-02-25T07:32:13.801Z,4.97
2019-02-25T07:33:13.804Z,4.99
2019-02-25T07:34:13.785Z,4.99
2019-02-25T07:35:13.771Z,4.96
2019-02-25T07:36:13.771Z,4.91
2019-02-25T07:37:13.767Z,4.88
2019-02-25T07:38:13.741Z,4.96
2019-02-25T07:39:13.732Z,4.85
2019-02-25T07:40:13.718Z,4.82
2019-02-25T07:41:13.711Z,4.85
2019-02-25T07:42:13.695Z,4.92
2019-02-25T07:43:15.388Z,4.99
2019-02-25T07:44:13.678Z,4.97
2019-02-25T07:45:13.666Z,5.00
2019-02-25T07:46:13.650Z,4.96
2019-02-25T07:47:13.646Z,4.99
2019-02-25T07:48:13.639Z,4.99
2019-02-25T07:49:13.636Z,5.00
2019-02-25T07:50:13.610Z,5.06
2019-02-25T07:51:13.598Z,5.03
2019-02-25T07:52:13.588Z,5.02
2019-02-25T07:53:13.579Z,5.02
2019-02-25T07:54:13.603Z,5.09
2019-02-25T07:55:13.553Z,4.97
2019-02-25T07:56:13.548Z,4.99
2019-02-25T07:57:13.536Z,4.99
2019-02-25T07:58:13.523Z,4.99
2019-02-25T07:59:24.556Z,4.97
2019-02-25T08:00:13.502Z,5.00
2019-02-25T08:01:13.494Z,5.03
2019-02-25T08:02:13.483Z,5.02
2019-02-25T08:03:13.475Z,5.10
2019-02-25T08:04:13.455Z,5.13
2019-02-25T08:05:13.491Z,5.04
2019-02-25T08:06:13.434Z,4.99
2019-02-25T08:07:13.426Z,4.96
2019-02-25T08:08:13.423Z,5.02
2019-02-25T08:09:13.405Z,4.94
2019-02-25T08:10:13.393Z,4.92
2019-02-25T08:11:13.421Z,5.00
2019-02-25T08:12:13.374Z,4.97
2019-02-25T08:13:13.370Z,4.96
2019-02-25T08:14:13.351Z,5.00
2019-02-25T08:15:13.348Z,5.02
2019-02-25T08:16:13.330Z,4.99
2019-02-25T08:17:13.328Z,4.97
2019-02-25T08:18:13.350Z,4.91
2019-02-25T08:19:13.300Z,4.82
2019-02-25T08:20:13.290Z,4.97
2019-02-25T08:21:13.282Z,4.99
2019-02-25T08:22:14.009Z,5.00
2019-02-25T08:23:13.264Z,4.78
2019-02-25T08:24:13.261Z,4.86
2019-02-25T08:25:13.241Z,4.92
2019-02-25T08:26:13.225Z,5.00
2019-02-25T08:27:13.210Z,4.96
2019-02-25T08:28:13.215Z,5.00
2019-02-25T08:29:13.192Z,4.99
2019-02-25T08:30:24.057Z,4.97
2019-02-25T08:31:13.171Z,5.02
2019-02-25T08:32:13.157Z,5.00
2019-02-25T08:33:13.144Z,5.12
2019-02-25T08:34:18.761Z,5.12
2019-02-25T08:35:14.133Z,5.12
2019-02-25T08:36:13.119Z,5.13
2019-02-25T08:37:13.099Z,5.10
2019-02-25T08:38:13.099Z,5.07
2019-02-25T08:39:13.084Z,4.97
2019-02-25T08:40:13.073Z,4.97
2019-02-25T08:41:13.068Z,5.09
2019-02-25T08:42:13.089Z,5.27
2019-02-25T08:43:13.039Z,5.12
2019-02-25T08:44:13.039Z,5.15
2019-02-25T08:45:13.016Z,5.17
2019-02-25T08:46:13.009Z,5.09
2019-02-25T08:47:13.004Z,5.12
2019-02-25T08:48:13.023Z,5.10
2019-02-25T08:49:12.985Z,5.09
2019-02-25T08:50:12.976Z,5.18
2019-02-25T08:51:12.972Z,5.06
2019-02-25T08:52:12.938Z,5.22
2019-02-25T08:53:12.930Z,5.20
2019-02-25T08:54:12.961Z,5.22
2019-02-25T08:55:12.907Z,5.38
2019-02-25T08:56:12.909Z,5.38
2019-02-25T08:57:12.886Z,5.53
2019-02-25T08:58:12.875Z,5.76
2019-02-25T08:59:12.867Z,5.74
2019-02-25T09:00:13.040Z,5.61
2019-02-25T09:01:22.832Z,5.49
2019-02-25T09:02:12.832Z,5.76
2019-02-25T09:03:12.823Z,6.21
2019-02-25T09:04:12.812Z,6.52
2019-02-25T09:05:12.939Z,6.58
2019-02-25T09:06:12.829Z,6.67
2019-02-25T09:07:12.784Z,7.31
2019-02-25T09:08:12.770Z,7.77
2019-02-25T09:09:12.756Z,8.08
2019-02-25T09:10:13.524Z,8.55
2019-02-25T09:11:14.398Z,8.58
2019-02-25T09:12:12.895Z,9.08
2019-02-25T09:13:12.711Z,9.36
2019-02-25T09:14:12.697Z,8.18
2019-02-25T09:15:12.695Z,8.44
2019-02-25T09:16:12.675Z,8.73
2019-02-25T09:17:12.676Z,8.86
2019-02-25T09:18:12.693Z,10.08
2019-02-25T09:19:12.643Z,10.32
2019-02-25T09:20:12.634Z,9.97
2019-02-25T09:21:12.627Z,9.99
2019-02-25T09:22:12.618Z,9.87
2019-02-25T09:23:12.600Z,9.29
2019-02-25T09:24:12.597Z,8.95
2019-02-25T09:25:12.582Z,8.56
2019-02-25T09:26:12.572Z,9.42
2019-02-25T09:27:12.563Z,8.20
2019-02-25T09:28:12.665Z,7.95
2019-02-25T09:29:12.572Z,8.18
2019-02-25T09:30:12.526Z,8.11
2019-02-25T09:31:12.510Z,8.92
2019-02-25T09:32:22.573Z,9.18
2019-02-25T09:33:12.493Z,8.38
2019-02-25T09:34:12.483Z,8.05
2019-02-25T09:35:12.504Z,8.16
2019-02-25T09:36:12.466Z,7.80
2019-02-25T09:37:12.448Z,8.00
2019-02-25T09:38:12.435Z,8.28
2019-02-25T09:39:12.425Z,8.12
2019-02-25T09:40:12.416Z,9.15
2019-02-25T09:41:12.435Z,9.48
2019-02-25T09:42:12.392Z,8.73
2019-02-25T09:43:12.381Z,8.79
2019-02-25T09:44:12.372Z,9.05
2019-02-25T09:45:12.356Z,8.73
2019-02-25T09:46:12.350Z,9.38
2019-02-25T09:47:12.372Z,10.61
2019-02-25T09:48:12.324Z,10.51
2019-02-25T09:49:12.313Z,9.32
2019-02-25T09:50:12.301Z,9.83
2019-02-25T09:51:12.304Z,10.34
2019-02-25T09:52:12.285Z,11.10
2019-02-25T09:53:12.317Z,11.42
2019-02-25T09:54:12.259Z,11.62
2019-02-25T09:55:12.246Z,12.16
2019-02-25T09:56:12.235Z,12.71
2019-02-25T09:57:12.230Z,12.56
2019-02-25T09:58:12.214Z,12.27
2019-02-25T09:59:12.245Z,12.14
2019-02-25T10:00:12.198Z,11.55
2019-02-25T10:01:12.189Z,11.96
2019-02-25T10:02:12.176Z,11.88
2019-02-25T10:03:23.154Z,12.14
2019-02-25T10:04:12.157Z,12.12
2019-02-25T10:05:12.150Z,12.70
2019-02-25T10:06:12.987Z,13.67
2019-02-25T10:07:12.136Z,13.48
2019-02-25T10:08:12.111Z,11.86
2019-02-25T10:09:12.101Z,10.08
2019-02-25T10:10:12.142Z,10.12
2019-02-25T10:11:12.077Z,10.17
2019-02-25T10:12:12.068Z,11.94
2019-02-25T10:13:12.055Z,11.70
2019-02-25T10:14:12.054Z,11.29
2019-02-25T10:15:12.034Z,11.25
2019-02-25T10:16:12.201Z,10.56
2019-02-25T10:17:12.018Z,10.07
2019-02-25T10:18:12.001Z,10.91
2019-02-25T10:19:11.996Z,11.17
2019-02-25T10:20:11.987Z,11.61
2019-02-25T10:21:11.976Z,12.86
2019-02-25T10:22:11.980Z,11.76
2019-02-25T10:23:11.950Z,12.24
2019-02-25T10:24:11.944Z,12.53
2019-02-25T10:25:11.931Z,13.10
2019-02-25T10:26:11.925Z,12.82
2019-02-25T10:27:11.908Z,12.56
2019-02-25T10:28:19.236Z,12.17
2019-02-25T10:29:11.894Z,12.93
2019-02-25T10:30:11.884Z,13.28
2019-02-25T10:31:13.059Z,13.46
2019-02-25T10:32:11.863Z,12.32
2019-02-25T10:33:11.850Z,12.90
2019-02-25T10:34:19.339Z,12.79
2019-02-25T10:35:11.826Z,13.25
2019-02-25T10:36:11.816Z,13.26
2019-02-25T10:37:13.120Z,12.96
2019-02-25T10:38:11.794Z,12.60
2019-02-25T10:39:13.039Z,12.54
2019-02-25T10:40:13.245Z,12.38
2019-02-25T10:41:11.770Z,13.22
2019-02-25T10:42:11.767Z,11.49
2019-02-25T10:43:11.753Z,12.79
2019-02-25T10:44:11.740Z,12.21
2019-02-25T10:45:13.509Z,10.88
2019-02-25T10:46:13.848Z,9.87
2019-02-25T10:47:13.534Z,10.79
2019-02-25T10:48:11.701Z,11.04
2019-02-25T10:49:11.884Z,10.07
2019-02-25T10:50:11.681Z,9.93
2019-02-25T10:51:13.567Z,9.90
2019-02-25T10:52:12.947Z,11.25
2019-02-25T10:53:13.571Z,10.56
2019-02-25T10:54:11.642Z,10.04
2019-02-25T10:55:11.622Z,9.47
2019-02-25T10:56:11.617Z,8.92
2019-02-25T10:57:11.616Z,8.63
2019-02-25T10:58:11.594Z,8.34
2019-02-25T10:59:11.579Z,8.15
2019-02-25T11:00:12.139Z,7.93
2019-02-25T11:01:13.510Z,7.82
2019-02-25T11:02:13.699Z,7.48
2019-02-25T11:03:12.962Z,7.35
2019-02-25T11:04:11.524Z,7.10
2019-02-25T11:05:23.284Z,6.97
2019-02-25T11:06:11.499Z,6.58
2019-02-25T11:07:11.494Z,6.62
2019-02-25T11:08:13.714Z,6.61
2019-02-25T11:09:13.292Z,6.61
2019-02-25T11:10:12.012Z,6.70
2019-02-25T11:11:11.445Z,6.44
2019-02-25T11:12:11.452Z,6.46
2019-02-25T11:13:11.427Z,6.11
2019-02-25T11:14:11.453Z,6.09
2019-02-25T11:15:12.057Z,5.97
2019-02-25T11:16:11.976Z,6.01
2019-02-25T11:17:11.390Z,5.76
2019-02-25T11:18:11.368Z,5.79
2019-02-25T11:19:11.366Z,5.97
2019-02-25T11:20:11.359Z,6.18
2019-02-25T11:21:11.349Z,6.22
2019-02-25T11:22:12.119Z,6.17
2019-02-25T11:23:12.818Z,6.18
2019-02-25T11:24:11.309Z,6.06
2019-02-25T11:25:11.335Z,5.94
2019-02-25T11:26:11.281Z,5.90
2019-02-25T11:27:11.270Z,6.04
2019-02-25T11:28:22.839Z,6.30
2019-02-25T11:29:13.780Z,6.44
2019-02-25T11:30:12.099Z,6.73
2019-02-25T11:31:11.265Z,6.91
2019-02-25T11:32:11.217Z,6.67
2019-02-25T11:33:11.205Z,7.35
2019-02-25T11:34:11.197Z,8.01
2019-02-25T11:35:12.929Z,9.13
2019-02-25T11:36:22.323Z,10.12
2019-02-25T11:37:11.165Z,10.48
2019-02-25T11:38:11.148Z,10.78
2019-02-25T11:39:11.141Z,12.12
2019-02-25T11:40:11.129Z,12.54
2019-02-25T11:41:11.366Z,12.82
2019-02-25T11:42:13.518Z,12.74
2019-02-25T11:43:13.232Z,12.96
2019-02-25T11:44:11.084Z,13.20
2019-02-25T11:45:11.078Z,12.70
2019-02-25T11:46:11.084Z,12.72
2019-02-25T11:47:11.061Z,12.85
2019-02-25T11:48:11.081Z,13.70
2019-02-25T11:49:11.040Z,14.12
2019-02-25T11:50:11.027Z,13.63
2019-02-25T11:51:11.012Z,13.79
2019-02-25T11:52:11.016Z,14.04
2019-02-25T11:53:10.993Z,14.32
2019-02-25T11:54:11.022Z,14.55
2019-02-25T11:55:10.970Z,14.32
2019-02-25T11:56:10.965Z,14.92
2019-02-25T11:57:10.958Z,15.20
2019-02-25T11:58:10.940Z,14.43
2019-02-25T11:59:10.928Z,13.45
2019-02-25T12:00:10.966Z,13.73
2019-02-25T12:01:10.924Z,14.33
2019-02-25T12:02:10.907Z,14.37
2019-02-25T12:03:10.892Z,14.43
2019-02-25T12:04:10.908Z,14.91
2019-02-25T12:05:10.867Z,14.39
2019-02-25T12:06:10.913Z,14.45
2019-02-25T12:07:21.390Z,15.21
2019-02-25T12:08:10.839Z,15.59
2019-02-25T12:09:10.824Z,15.50
2019-02-25T12:10:10.820Z,15.78
2019-02-25T12:11:10.804Z,15.75
2019-02-25T12:12:10.818Z,16.04
2019-02-25T12:13:10.799Z,16.17
2019-02-25T12:14:10.786Z,16.35
2019-02-25T12:15:10.767Z,14.58
2019-02-25T12:16:10.761Z,14.65
2019-02-25T12:17:10.762Z,14.89
2019-02-25T12:18:10.849Z,14.98
2019-02-25T12:19:17.793Z,15.10
2019-02-25T12:20:11.723Z,15.07
2019-02-25T12:21:10.723Z,15.80
2019-02-25T12:22:10.695Z,16.14
2019-02-25T12:23:10.691Z,16.00
2019-02-25T12:24:10.718Z,15.51
2019-02-25T12:25:10.668Z,15.60
2019-02-25T12:26:10.663Z,14.15
2019-02-25T12:27:11.893Z,12.65
2019-02-25T12:28:10.641Z,12.59
2019-02-25T12:29:11.187Z,11.52
2019-02-25T12:30:10.657Z,12.65
2019-02-25T12:31:10.634Z,13.91
2019-02-25T12:32:10.598Z,13.84
2019-02-25T12:33:10.600Z,12.95
2019-02-25T12:34:10.594Z,11.98
2019-02-25T12:35:10.566Z,11.21
2019-02-25T12:36:10.617Z,10.30
2019-02-25T12:37:10.557Z,9.74
2019-02-25T12:38:21.134Z,9.14
2019-02-25T12:39:10.518Z,8.37
2019-02-25T12:40:10.512Z,8.47
2019-02-25T12:41:10.507Z,8.02
2019-02-25T12:42:10.508Z,7.83
2019-02-25T12:43:10.480Z,7.68
2019-02-25T12:44:10.468Z,7.46
2019-02-25T12:45:10.459Z,7.43
2019-02-25T12:46:10.453Z,7.55
2019-02-25T12:47:10.478Z,7.32
2019-02-25T12:48:10.422Z,7.42
2019-02-25T12:49:10.411Z,7.52
2019-02-25T12:50:10.408Z,7.53
2019-02-25T12:51:10.396Z,9.21
2019-02-25T12:52:10.387Z,11.11
2019-02-25T12:53:10.548Z,10.53
2019-02-25T12:54:10.363Z,12.56
2019-02-25T12:55:10.359Z,13.70
2019-02-25T12:56:10.335Z,14.75
2019-02-25T12:57:10.328Z,14.50
2019-02-25T12:58:10.320Z,12.85
2019-02-25T12:59:10.351Z,11.44
2019-02-25T13:00:10.299Z,11.64
2019-02-25T13:01:10.280Z,9.84
2019-02-25T13:02:10.277Z,8.91
2019-02-25T13:03:10.262Z,8.37
2019-02-25T13:04:10.257Z,7.89
2019-02-25T13:05:10.255Z,7.53
2019-02-25T13:06:10.233Z,7.42
2019-02-25T13:07:10.215Z,7.10
2019-02-25T13:08:10.207Z,6.99
2019-02-25T13:09:20.386Z,6.89
2019-02-25T13:10:10.221Z,7.28
2019-02-25T13:11:10.174Z,7.79
2019-02-25T13:12:10.163Z,7.95
2019-02-25T13:13:10.147Z,8.55